Time;durP1;ratioP1;P1;durP2;ratioP2;P2;SDS_P1;SDS_P2;PMS_P1;PMS_P2;Temp;Humidity;BMP_temperature;BMP_pressure;BME280_temperature;BME280_humidity;BME280_pressure;Samples;Min_cycle;Max_cycle;Signal;HPM_P1;HPM_P2
2022/11/29 00:01:19;;;;;;;36.77;25.10;;;5.40;1.00;;;;;;5077950;28;20458;-67
2022/11/29 00:03:45;;;;;;;37.87;23.67;;;5.40;1.00;;;;;;5077965;28;20549;-67
2022/11/29 00:06:14;;;;;;;36.73;24.93;;;5.40;1.00;;;;;;5077858;28;20549;-67
2022/11/29 00:08:42;;;;;;;38.80;24.33;;;5.40;1.00;;;;;;5078187;28;20478;-67
2022/11/29 00:12:10;;;;;;;35.37;23.27;;;5.40;1.00;;;;;;5078028;28;20776;-67
2022/11/29 00:14:01;;;;;;;38.70;23.23;;;5.40;1.00;;;;;;5077665;28;20568;-67
2022/11/29 00:16:29;;;;;;;35.00;22.83;;;5.40;1.00;;;;;;5077884;28;20541;-68
2022/11/29 00:18:56;;;;;;;41.37;24.10;;;5.40;1.00;;;;;;5078165;28;20533;-66
2022/11/29 00:21:23;;;;;;;37.17;23.87;;;5.50;1.00;;;;;;5078268;28;20526;-67
2022/11/29 00:23:50;;;;;;;36.20;23.73;;;5.40;1.00;;;;;;5077493;28;20540;-67
2022/11/29 00:26:17;;;;;;;35.40;23.63;;;5.50;1.00;;;;;;5077811;28;20458;-67
2022/11/29 00:28:44;;;;;;;35.93;24.47;;;5.40;99.90;;;;;;5077701;28;20478;-67
2022/11/29 00:31:16;;;;;;;38.10;22.83;;;5.50;99.90;;;;;;5078218;28;20859;-66
2022/11/29 00:33:45;;;;;;;35.33;23.40;;;5.50;1.00;;;;;;5077608;28;20536;-66
2022/11/29 00:36:12;;;;;;;39.53;25.17;;;5.50;99.90;;;;;;5077507;28;20485;-67
2022/11/29 00:38:39;;;;;;;39.73;24.27;;;5.50;99.90;;;;;;5078353;28;20486;-67
2022/11/29 00:41:07;;;;;;;35.40;23.20;;;5.50;1.00;;;;;;5077847;28;20545;-67
2022/11/29 00:43:34;;;;;;;37.90;23.07;;;5.50;1.00;;;;;;5078667;28;20721;-67
2022/11/29 00:46:01;;;;;;;36.20;23.90;;;5.50;1.00;;;;;;5078192;28;20460;-67
2022/11/29 00:48:28;;;;;;;35.47;23.57;;;5.50;1.00;;;;;;5078931;28;20550;-67
2022/11/29 00:50:56;;;;;;;36.23;24.47;;;5.40;97.70;;;;;;5079062;28;20454;-66
2022/11/29 00:53:23;;;;;;;37.80;24.10;;;5.40;99.90;;;;;;5078949;28;20458;-68
2022/11/29 00:55:51;;;;;;;35.60;23.80;;;5.40;99.90;;;;;;5077907;28;20540;-67
2022/11/29 00:58:18;;;;;;;36.93;22.87;;;5.40;1.00;;;;;;5077304;28;20469;-67
2022/11/29 01:00:46;;;;;;;41.57;23.70;;;5.40;1.00;;;;;;5077288;28;20549;-67
2022/11/29 01:03:15;;;;;;;39.33;25.23;;;5.40;1.00;;;;;;5076201;28;20469;-68
2022/11/29 01:05:42;;;;;;;40.97;23.60;;;5.40;1.00;;;;;;5077078;28;20484;-67
2022/11/29 01:08:11;;;;;;;33.23;22.43;;;5.40;1.00;;;;;;5077169;28;20458;-66
2022/11/29 01:10:38;;;;;;;39.67;24.30;;;5.40;1.00;;;;;;5077062;28;20479;-67
2022/11/29 01:13:05;;;;;;;35.17;22.70;;;5.40;1.00;;;;;;5076641;28;20857;-67
2022/11/29 01:15:33;;;;;;;37.53;23.80;;;5.40;1.00;;;;;;5076662;28;20458;-66
2022/11/29 01:17:59;;;;;;;38.23;24.30;;;5.40;1.00;;;;;;5076560;28;20454;-66
2022/11/29 01:20:27;;;;;;;38.97;23.97;;;5.40;1.00;;;;;;5076497;28;20460;-66
2022/11/29 01:22:54;;;;;;;35.83;23.60;;;5.50;1.00;;;;;;5076805;28;20556;-66
2022/11/29 01:25:22;;;;;;;40.33;24.67;;;5.50;1.00;;;;;;5076610;28;20789;-66
2022/11/29 01:27:49;;;;;;;36.73;23.93;;;5.50;99.90;;;;;;5076836;28;20812;-67
2022/11/29 01:30:15;;;;;;;40.17;25.60;;;5.50;1.00;;;;;;5076293;28;20484;-67
2022/11/29 01:32:42;;;;;;;32.40;23.67;;;5.50;1.00;;;;;;5076837;28;20458;-67
2022/11/29 01:35:09;;;;;;;34.97;23.13;;;5.50;1.00;;;;;;5076769;28;20537;-67
2022/11/29 01:37:36;;;;;;;32.97;23.03;;;5.50;1.00;;;;;;5076934;28;20793;-67
2022/11/29 01:40:04;;;;;;;42.53;24.57;;;5.50;1.00;;;;;;5076646;28;20450;-68
2022/11/29 01:42:32;;;;;;;35.40;24.30;;;5.40;1.00;;;;;;5076973;28;20546;-68
2022/11/29 01:45:13;;;;;;;35.60;23.20;;;5.40;1.00;;;;;;5076772;28;20464;-68
2022/11/29 01:47:45;;;;;;;40.57;25.17;;;5.40;1.00;;;;;;5076872;28;20840;-67
2022/11/29 01:50:12;;;;;;;36.63;24.97;;;5.40;1.00;;;;;;5076120;28;20476;-67
2022/11/29 01:52:39;;;;;;;38.73;24.33;;;5.40;1.00;;;;;;5076044;28;20458;-67
2022/11/29 01:55:08;;;;;;;38.00;24.43;;;5.40;1.00;;;;;;5076212;28;20461;-66
2022/11/29 01:57:39;;;;;;;39.83;24.27;;;5.40;99.90;;;;;;5076180;28;20839;-67
2022/11/29 02:00:10;;;;;;;40.10;24.83;;;5.40;1.00;;;;;;5075882;28;20525;-66
2022/11/29 02:02:42;;;;;;;39.97;25.60;;;5.40;1.00;;;;;;5076026;28;20442;-67
2022/11/29 02:05:10;;;;;;;37.20;25.03;;;5.40;8.10;;;;;;5076711;28;20443;-67
2022/11/29 02:07:37;;;;;;;34.50;23.70;;;5.50;1.00;;;;;;5076292;28;20575;-67
2022/11/29 02:10:06;;;;;;;36.20;24.17;;;5.50;1.00;;;;;;5075889;28;20573;-67
2022/11/29 02:12:41;;;;;;;39.13;23.97;;;5.50;99.90;;;;;;5075646;28;20549;-66
2022/11/29 02:15:28;;;;;;;42.07;26.30;;;5.50;99.90;;;;;;5074746;28;20507;-67
2022/11/29 02:18:04;;;;;;;37.43;23.80;;;5.60;99.90;;;;;;5075215;28;20529;-66
2022/11/29 02:21:16;;;;;;;36.73;24.00;;;5.60;99.90;;;;;;5075391;28;20449;-66
2022/11/29 02:24:40;;;;;;;37.20;24.87;;;5.50;99.90;;;;;;5075004;28;20541;-66
2022/11/29 02:27:27;;;;;;;37.50;23.63;;;5.50;99.90;;;;;;5033511;28;20604;-66
2022/11/29 02:30:16;;;;;;;35.80;22.50;;;5.50;99.90;;;;;;5075458;28;20496;-66
2022/11/29 02:33:21;;;;;;;35.03;23.47;;;5.50;99.90;;;;;;5075546;28;20587;-66
2022/11/29 02:36:17;;;;;;;36.57;24.63;;;5.50;1.00;;;;;;5075108;28;20558;-66
2022/11/29 02:39:08;;;;;;;39.30;23.03;;;5.50;1.00;;;;;;5074955;28;20449;-66
2022/11/29 02:41:49;;;;;;;34.53;23.73;;;5.50;99.90;;;;;;5074943;28;20477;-67
2022/11/29 02:44:41;;;;;;;39.67;25.60;;;5.50;99.90;;;;;;5075828;28;20533;-66
2022/11/29 02:47:19;;;;;;;41.70;24.00;;;5.60;99.90;;;;;;5074955;28;20541;-67
2022/11/29 02:50:05;;;;;;;40.23;25.00;;;5.60;99.90;;;;;;5075040;28;20470;-66
2022/11/29 02:52:46;;;;;;;37.47;23.97;;;5.60;99.90;;;;;;5075188;28;20583;-67
2022/11/29 02:55:21;;;;;;;36.23;23.90;;;5.70;1.00;;;;;;5074856;28;20489;-66
2022/11/29 02:57:56;;;;;;;33.03;23.30;;;5.70;1.00;;;;;;5075245;28;20778;-67
2022/11/29 03:00:23;;;;;;;37.63;23.70;;;5.60;1.00;;;;;;5075063;28;20438;-67
2022/11/29 03:02:57;;;;;;;37.97;24.63;;;5.70;1.00;;;;;;5074646;28;20910;-66
2022/11/29 03:05:36;;;;;;;38.93;24.93;;;5.60;5.10;;;;;;5074866;28;20770;-67
2022/11/29 03:08:16;;;;;;;40.60;24.63;;;5.60;1.00;;;;;;5074747;28;20484;-66
2022/11/29 03:10:55;;;;;;;38.03;25.60;;;5.60;1.00;;;;;;5074378;28;20553;-67
2022/11/29 03:13:30;;;;;;;38.33;24.60;;;5.60;1.00;;;;;;5074701;28;20442;-66
2022/11/29 03:16:04;;;;;;;43.37;25.27;;;5.60;58.60;;;;;;5075340;28;20847;-66
2022/11/29 03:18:37;;;;;;;39.10;24.90;;;5.60;99.90;;;;;;5074708;28;20515;-67
2022/11/29 03:21:12;;;;;;;41.87;26.70;;;5.70;99.90;;;;;;5074301;28;20521;-67
2022/11/29 03:23:45;;;;;;;36.03;24.47;;;5.60;99.90;;;;;;5074666;28;20537;-67
2022/11/29 03:26:15;;;;;;;38.70;24.93;;;5.60;99.90;;;;;;5074696;28;20764;-68
2022/11/29 03:28:48;;;;;;;36.60;24.77;;;5.70;99.90;;;;;;5075278;28;20517;-68
2022/11/29 03:31:23;;;;;;;38.97;25.40;;;5.60;99.90;;;;;;5074914;28;20473;-68
2022/11/29 03:33:56;;;;;;;37.33;23.37;;;5.60;99.90;;;;;;5074661;28;20525;-68
2022/11/29 03:36:33;;;;;;;43.00;27.20;;;5.60;99.90;;;;;;5074224;28;20490;-67
2022/11/29 03:39:04;;;;;;;37.57;24.87;;;5.60;99.90;;;;;;5074362;28;20533;-67
2022/11/29 03:41:41;;;;;;;42.23;26.63;;;5.60;99.90;;;;;;5075310;28;20533;-66
2022/11/29 03:44:12;;;;;;;37.33;24.77;;;5.60;99.90;;;;;;5074320;28;20529;-66
2022/11/29 03:46:47;;;;;;;43.40;25.13;;;5.60;99.90;;;;;;5074835;28;20785;-66
2022/11/29 03:49:21;;;;;;;39.67;25.33;;;5.60;99.90;;;;;;5074583;28;20446;-67
2022/11/29 03:51:59;;;;;;;44.30;27.53;;;5.60;99.90;;;;;;5074677;28;20439;-67
2022/11/29 03:54:30;;;;;;;41.90;25.93;;;5.60;1.00;;;;;;5074522;28;20576;-67
2022/11/29 03:56:58;;;;;;;36.57;25.60;;;5.60;1.00;;;;;;5074671;28;20442;-66
2022/11/29 03:59:37;;;;;;;35.63;24.20;;;5.60;1.00;;;;;;5074181;28;20450;-67
2022/11/29 04:02:40;;;;;;;42.20;26.57;;;5.60;1.00;;;;;;5074509;28;20521;-67
2022/11/29 04:05:28;;;;;;;41.90;24.93;;;5.60;1.00;;;;;;5038326;28;20458;-67
2022/11/29 04:08:27;;;;;;;38.90;25.23;;;5.60;1.00;;;;;;5074117;28;20442;-67
2022/11/29 04:11:17;;;;;;;36.60;25.47;;;5.70;1.00;;;;;;5073722;28;20973;-66
2022/11/29 04:14:05;;;;;;;39.63;25.07;;;5.60;99.90;;;;;;5074177;28;20453;-67
2022/11/29 04:17:11;;;;;;;41.70;26.43;;;5.60;99.90;;;;;;5074266;28;20512;-66
2022/11/29 04:20:05;;;;;;;38.60;25.10;;;5.60;99.90;;;;;;5073849;28;20434;-67
2022/11/29 04:23:17;;;;;;;36.97;24.10;;;5.50;1.00;;;;;;5073911;28;20544;-67
2022/11/29 04:26:02;;;;;;;40.63;25.80;;;5.50;1.00;;;;;;5074110;28;20549;-67
2022/11/29 04:28:58;;;;;;;40.50;24.60;;;5.50;1.00;;;;;;5073692;28;20485;-67
2022/11/29 04:31:37;;;;;;;39.93;26.30;;;5.40;1.00;;;;;;5074217;28;20492;-67
2022/11/29 04:34:34;;;;;;;41.60;25.60;;;5.50;1.00;;;;;;5073910;28;20525;-66
2022/11/29 04:37:18;;;;;;;39.07;24.87;;;5.40;1.00;;;;;;5075324;28;20507;-67
2022/11/29 04:40:10;;;;;;;41.10;26.23;;;5.40;1.00;;;;;;5077719;28;20868;-66
2022/11/29 04:43:06;;;;;;;39.80;26.13;;;5.40;1.00;;;;;;5077440;28;20781;-67
2022/11/29 04:45:52;;;;;;;38.10;25.27;;;5.30;1.00;;;;;;5076260;28;20454;-66
2022/11/29 04:48:36;;;;;;;38.73;25.70;;;5.30;99.70;;;;;;5077434;28;20448;-67
2022/11/29 04:51:14;;;;;;;46.17;25.67;;;5.40;1.00;;;;;;5077489;28;20501;-66
2022/11/29 04:53:54;;;;;;;37.33;24.60;;;5.40;1.00;;;;;;5077309;28;20529;-66
2022/11/29 04:56:30;;;;;;;45.73;26.27;;;5.30;1.00;;;;;;5076529;28;20537;-66
2022/11/29 04:59:04;;;;;;;41.23;26.67;;;5.30;58.70;;;;;;5077035;28;20447;-65
2022/11/29 05:01:43;;;;;;;40.00;26.50;;;5.30;99.90;;;;;;5076976;28;20449;-66
2022/11/29 05:04:16;;;;;;;38.00;27.13;;;5.30;18.80;;;;;;5077206;28;20534;-67
2022/11/29 05:06:58;;;;;;;40.20;26.50;;;5.30;99.90;;;;;;5077124;28;20443;-66
2022/11/29 05:09:32;;;;;;;45.43;26.87;;;5.30;99.90;;;;;;5077001;28;20442;-66
2022/11/29 05:12:11;;;;;;;41.47;25.63;;;5.30;99.90;;;;;;5076635;28;20960;-66
2022/11/29 05:14:50;;;;;;;42.07;26.00;;;5.30;99.90;;;;;;5076981;28;20521;-66
2022/11/29 05:17:30;;;;;;;41.53;27.30;;;5.30;99.90;;;;;;5076861;28;20864;-67
2022/11/29 05:20:08;;;;;;;39.50;26.00;;;5.30;99.90;;;;;;5076774;28;20457;-66
2022/11/29 05:22:47;;;;;;;41.23;26.23;;;5.30;99.90;;;;;;5076820;28;20533;-67
2022/11/29 05:25:39;;;;;;;39.60;25.40;;;5.30;1.00;;;;;;5077010;28;20531;-66
2022/11/29 05:28:15;;;;;;;45.60;25.13;;;5.30;99.90;;;;;;5076869;28;20642;-66
2022/11/29 05:31:08;;;;;;;38.70;25.50;;;5.30;99.90;;;;;;5077264;28;20476;-67
2022/11/29 05:34:04;;;;;;;39.20;25.90;;;5.30;1.00;;;;;;5078223;28;20624;-66
2022/11/29 05:36:39;;;;;;;38.40;24.90;;;5.40;1.00;;;;;;5077829;28;20529;-67
2022/11/29 05:39:24;;;;;;;43.30;26.83;;;5.40;99.90;;;;;;5077163;28;20452;-67
2022/11/29 05:42:29;;;;;;;44.83;25.83;;;5.40;99.90;;;;;;5076038;28;20521;-67
2022/11/29 05:45:03;;;;;;;38.70;25.93;;;5.30;99.90;;;;;;5075929;28;20489;-67
2022/11/29 05:47:37;;;;;;;40.07;26.60;;;5.40;99.90;;;;;;5075970;28;20532;-67
2022/11/29 05:50:10;;;;;;;40.30;25.63;;;5.40;1.00;;;;;;5075968;28;20467;-67
2022/11/29 05:52:50;;;;;;;39.17;25.80;;;5.40;1.00;;;;;;5075819;28;20443;-67
2022/11/29 05:55:31;;;;;;;39.57;25.77;;;5.50;1.00;;;;;;5076660;28;20537;-67
2022/11/29 05:58:04;;;;;;;39.40;27.83;;;5.50;99.90;;;;;;5076347;28;20761;-67
2022/11/29 06:00:41;;;;;;;40.47;25.67;;;5.50;99.90;;;;;;5076135;28;20456;-67
2022/11/29 06:03:19;;;;;;;42.40;26.00;;;5.50;99.90;;;;;;5075850;28;20580;-67
2022/11/29 06:05:51;;;;;;;37.80;25.70;;;5.50;99.90;;;;;;5075655;28;20529;-66
2022/11/29 06:08:24;;;;;;;42.90;27.00;;;5.60;99.90;;;;;;5075931;28;20529;-66
2022/11/29 06:11:00;;;;;;;38.90;25.63;;;5.50;99.90;;;;;;5075432;28;20877;-66
2022/11/29 06:13:40;;;;;;;40.80;27.13;;;5.50;99.90;;;;;;5076571;28;20820;-66
2022/11/29 06:16:24;;;;;;;39.70;26.63;;;5.50;99.90;;;;;;5076240;28;20504;-68
2022/11/29 06:19:23;;;;;;;41.57;25.17;;;5.50;99.90;;;;;;5075965;28;20529;-67
2022/11/29 06:22:01;;;;;;;39.07;25.23;;;5.50;1.00;;;;;;5075655;28;20545;-66
2022/11/29 06:24:44;;;;;;;44.43;28.07;;;5.50;99.90;;;;;;5076303;28;20525;-67
2022/11/29 06:27:42;;;;;;;39.63;27.20;;;5.50;1.00;;;;;;5076074;28;20919;-67
2022/11/29 06:30:13;;;;;;;42.17;26.10;;;5.50;1.00;;;;;;5076007;28;20474;-68
2022/11/29 06:32:50;;;;;;;39.60;26.10;;;5.50;1.00;;;;;;5077012;28;20493;-67
2022/11/29 06:35:34;;;;;;;38.63;24.37;;;5.50;1.00;;;;;;5075858;28;20958;-67
2022/11/29 06:38:08;;;;;;;41.33;26.90;;;5.50;1.00;;;;;;5076010;28;20869;-67
2022/11/29 06:40:36;;;;;;;40.83;26.30;;;5.50;1.00;;;;;;5075803;28;20434;-67
2022/11/29 06:43:03;;;;;;;36.80;25.03;;;5.50;99.90;;;;;;5076071;28;20830;-67
2022/11/29 06:45:30;;;;;;;44.27;26.83;;;5.50;99.90;;;;;;5076159;28;21009;-68
2022/11/29 06:48:03;;;;;;;34.57;24.10;;;5.50;99.90;;;;;;5075978;28;20522;-68
2022/11/29 06:50:44;;;;;;;39.70;26.37;;;5.50;99.90;;;;;;5076137;28;20473;-68
2022/11/29 06:53:18;;;;;;;36.10;24.73;;;5.50;99.90;;;;;;5076504;28;20434;-68
2022/11/29 06:55:52;;;;;;;42.73;24.20;;;5.50;99.90;;;;;;5076429;28;20541;-69
2022/11/29 06:58:35;;;;;;;50.17;25.97;;;5.50;99.90;;;;;;5076295;28;20438;-69
2022/11/29 07:01:10;;;;;;;38.50;25.17;;;5.50;1.00;;;;;;5075445;28;20438;-68
2022/11/29 07:03:56;;;;;;;37.00;23.63;;;5.50;1.00;;;;;;5076099;28;20533;-68
2022/11/29 07:06:26;;;;;;;40.53;24.83;;;5.50;1.00;;;;;;5076315;28;20777;-70
2022/11/29 07:08:56;;;;;;;34.47;24.90;;;5.40;99.90;;;;;;5076138;28;20469;-68
2022/11/29 07:11:23;;;;;;;34.07;24.27;;;5.40;99.00;;;;;;5076212;28;20478;-68
2022/11/29 07:13:50;;;;;;;40.00;26.07;;;5.40;99.90;;;;;;5076398;28;20453;-68
2022/11/29 07:16:24;;;;;;;38.67;26.37;;;5.50;99.90;;;;;;5075809;28;20541;-68
2022/11/29 07:19:03;;;;;;;41.13;26.53;;;5.50;1.00;;;;;;5076088;28;20446;-68
2022/11/29 07:21:42;;;;;;;38.93;25.07;;;5.50;99.90;;;;;;5076637;28;20831;-68
2022/11/29 07:24:22;;;;;;;37.97;24.90;;;5.50;1.00;;;;;;5075857;28;20541;-67
2022/11/29 07:26:58;;;;;;;38.33;25.10;;;5.50;16.10;;;;;;5076214;28;20444;-69
2022/11/29 07:29:31;;;;;;;35.70;23.83;;;5.50;1.00;;;;;;5075842;28;20597;-68
2022/11/29 07:32:06;;;;;;;37.67;26.33;;;5.50;99.90;;;;;;5075419;28;20562;-70
2022/11/29 07:34:44;;;;;;;37.77;24.70;;;5.60;1.00;;;;;;5075693;28;20478;-67
2022/11/29 07:37:23;;;;;;;41.90;24.70;;;5.60;1.00;;;;;;5075417;28;20549;-67
2022/11/29 07:39:58;;;;;;;38.50;24.50;;;5.60;1.00;;;;;;5075492;28;20525;-67
2022/11/29 07:42:31;;;;;;;39.63;23.83;;;5.60;1.00;;;;;;5075973;28;20777;-68
2022/11/29 07:45:07;;;;;;;35.80;24.20;;;5.60;99.90;;;;;;5075713;28;20537;-67
2022/11/29 07:47:34;;;;;;;37.03;25.60;;;5.70;99.90;;;;;;5076105;28;20457;-68
2022/11/29 07:50:02;;;;;;;40.53;24.33;;;5.70;99.90;;;;;;5075331;28;20468;-68
2022/11/29 07:52:29;;;;;;;40.20;25.70;;;5.80;99.90;;;;;;5075976;28;20558;-68
2022/11/29 07:54:56;;;;;;;37.60;24.70;;;5.80;46.30;;;;;;5076481;28;20537;-68
2022/11/29 07:57:23;;;;;;;37.90;25.97;;;5.80;84.80;;;;;;5075636;28;20460;-69
2022/11/29 07:59:49;;;;;;;42.40;25.03;;;5.80;1.00;;;;;;5076071;28;20541;-68
2022/11/29 08:02:26;;;;;;;37.00;25.20;;;5.80;11.90;;;;;;5075827;28;20450;-67
2022/11/29 08:04:53;;;;;;;46.60;26.57;;;5.80;1.00;;;;;;5076219;28;20827;-67
2022/11/29 08:07:21;;;;;;;37.90;25.00;;;5.90;1.00;;;;;;5075557;28;20464;-68
2022/11/29 08:09:48;;;;;;;37.87;25.20;;;5.90;1.00;;;;;;5075647;28;20497;-67
2022/11/29 08:12:15;;;;;;;37.77;25.60;;;6.00;6.40;;;;;;5076805;28;20557;-67
2022/11/29 08:14:42;;;;;;;38.83;24.47;;;6.00;25.60;;;;;;5079313;28;20806;-67
2022/11/29 08:17:09;;;;;;;36.80;23.80;;;6.10;1.00;;;;;;5079044;28;20453;-68
2022/11/29 08:19:36;;;;;;;36.13;24.10;;;6.10;99.90;;;;;;5079241;28;20545;-68
2022/11/29 08:22:02;;;;;;;38.57;25.30;;;6.10;99.90;;;;;;5078798;28;20558;-67
2022/11/29 08:24:31;;;;;;;34.47;25.23;;;6.10;99.90;;;;;;5078356;28;20944;-67
2022/11/29 08:26:57;;;;;;;39.60;26.20;;;6.20;99.90;;;;;;5078971;28;20803;-67
2022/11/29 08:29:24;;;;;;;39.97;25.50;;;6.20;1.00;;;;;;5078507;28;20464;-68
2022/11/29 08:31:52;;;;;;;40.57;24.47;;;6.30;99.90;;;;;;5078602;28;20511;-68
2022/11/29 08:34:19;;;;;;;37.90;24.30;;;6.30;99.90;;;;;;5077989;28;20461;-67
2022/11/29 08:36:46;;;;;;;39.20;24.30;;;6.40;33.10;;;;;;5078486;28;20452;-68
2022/11/29 08:39:12;;;;;;;36.30;25.20;;;6.40;1.00;;;;;;5078031;28;20565;-68
2022/11/29 08:41:41;;;;;;;38.43;24.00;;;6.50;1.00;;;;;;5077822;28;20529;-68
2022/11/29 08:44:08;;;;;;;43.03;24.77;;;6.50;99.90;;;;;;5077794;28;20458;-67
2022/11/29 08:49:19;;;;;;;36.77;24.43;;;6.60;93.20;;;;;;5078026;28;20556;-67
2022/11/29 08:51:46;;;;;;;38.00;25.67;;;6.60;99.90;;;;;;5077995;28;20966;-68
2022/11/29 08:54:12;;;;;;;36.63;25.17;;;6.70;99.90;;;;;;5078646;28;20549;-67
2022/11/29 08:56:39;;;;;;;33.27;23.10;;;6.70;99.90;;;;;;5079073;28;20561;-68
2022/11/29 08:59:07;;;;;;;41.53;24.77;;;6.70;99.90;;;;;;5078624;28;20287;-67
2022/11/29 09:01:34;;;;;;;39.40;24.33;;;6.80;99.90;;;;;;5077520;28;20945;-67
2022/11/29 09:04:02;;;;;;;35.23;22.20;;;6.80;99.90;;;;;;5077639;28;20764;-68
2022/11/29 09:06:30;;;;;;;35.17;22.13;;;6.80;99.90;;;;;;5077881;28;21020;-68
2022/11/29 09:08:58;;;;;;;34.73;23.27;;;6.90;99.90;;;;;;5078918;28;20454;-68
2022/11/29 09:11:27;;;;;;;32.13;23.57;;;6.90;99.90;;;;;;5077333;28;20474;-68
2022/11/29 09:13:56;;;;;;;36.53;22.40;;;6.90;99.90;;;;;;5078075;28;20557;-68
2022/11/29 09:16:26;;;;;;;35.33;22.73;;;6.90;99.90;;;;;;5078034;28;20532;-67
2022/11/29 09:18:54;;;;;;;38.67;24.50;;;6.90;99.90;;;;;;5077951;28;20652;-71
2022/11/29 09:21:23;;;;;;;33.47;22.93;;;6.90;99.90;;;;;;5077906;28;20455;-67
2022/11/29 09:23:56;;;;;;;36.80;23.70;;;6.90;99.90;;;;;;5077235;28;20454;-66
2022/11/29 09:26:24;;;;;;;37.07;23.10;;;7.00;99.90;;;;;;5077900;28;20843;-68
2022/11/29 09:28:51;;;;;;;36.50;23.70;;;7.00;99.90;;;;;;5077345;28;20617;-67
2022/11/29 09:31:18;;;;;;;44.90;25.20;;;7.00;99.90;;;;;;5077199;28;20473;-67
2022/11/29 09:33:47;;;;;;;37.10;22.87;;;7.00;99.90;;;;;;5077389;28;20503;-67
2022/11/29 09:36:15;;;;;;;34.33;24.67;;;7.00;99.90;;;;;;5076700;28;20826;-67
2022/11/29 09:38:41;;;;;;;37.73;24.43;;;7.10;99.90;;;;;;5077253;28;20764;-67
2022/11/29 09:41:20;;;;;;;37.63;23.53;;;7.20;99.90;;;;;;5076943;28;20480;-68
2022/11/29 09:43:55;;;;;;;33.80;23.13;;;7.30;99.90;;;;;;5077428;28;20442;-68
2022/11/29 09:46:34;;;;;;;34.10;23.33;;;7.40;99.90;;;;;;5077462;28;20438;-68
2022/11/29 09:49:23;;;;;;;36.10;23.93;;;7.40;99.90;;;;;;5076973;28;20439;-68
2022/11/29 09:51:55;;;;;;;31.87;22.67;;;7.40;99.90;;;;;;5076888;28;20965;-68
2022/11/29 09:54:32;;;;;;;35.27;24.67;;;7.50;99.90;;;;;;5077044;28;20442;-67
2022/11/29 09:57:01;;;;;;;32.73;22.50;;;7.50;99.90;;;;;;5076935;28;20529;-68
2022/11/29 09:59:32;;;;;;;37.13;24.33;;;7.60;99.90;;;;;;5076465;28;20481;-68
2022/11/29 10:02:03;;;;;;;40.90;23.90;;;7.60;99.90;;;;;;5076491;28;20530;-68
2022/11/29 10:04:39;;;;;;;34.30;22.03;;;7.60;99.90;;;;;;5076548;28;20829;-67
2022/11/29 10:07:14;;;;;;;39.73;23.13;;;7.60;99.90;;;;;;5076984;28;20871;-67
2022/11/29 10:09:45;;;;;;;35.10;23.20;;;7.60;99.90;;;;;;5076739;28;20524;-68
2022/11/29 10:12:17;;;;;;;35.13;23.07;;;7.60;99.90;;;;;;5077326;28;20502;-68
2022/11/29 10:14:49;;;;;;;38.93;23.80;;;7.60;99.90;;;;;;5076822;28;20474;-68
2022/11/29 10:17:29;;;;;;;34.23;23.80;;;7.60;99.90;;;;;;5076712;28;20546;-67
2022/11/29 10:20:00;;;;;;;36.23;22.90;;;7.60;99.90;;;;;;5076397;28;20528;-69
2022/11/29 10:22:36;;;;;;;39.53;24.50;;;7.60;99.90;;;;;;5075998;28;20450;-68
2022/11/29 10:25:05;;;;;;;37.83;23.87;;;7.60;99.90;;;;;;5076039;28;20442;-69
2022/11/29 10:27:32;;;;;;;37.27;24.57;;;7.60;99.90;;;;;;5076050;28;20541;-68
2022/11/29 10:30:01;;;;;;;38.20;24.37;;;7.60;99.90;;;;;;5076577;28;20500;-67
2022/11/29 10:32:31;;;;;;;32.77;22.80;;;7.60;99.90;;;;;;5075861;28;20504;-66
2022/11/29 10:35:00;;;;;;;34.77;22.37;;;7.50;99.90;;;;;;5074791;28;20500;-68
2022/11/29 10:37:31;;;;;;;33.37;22.60;;;7.50;99.90;;;;;;5076166;28;20485;-67
2022/11/29 10:40:06;;;;;;;39.63;25.13;;;7.40;99.90;;;;;;5075765;28;20520;-68
2022/11/29 10:42:48;;;;;;;36.67;24.87;;;7.30;99.90;;;;;;5075999;28;20449;-68
2022/11/29 10:45:21;;;;;;;39.60;24.13;;;7.30;99.90;;;;;;5076243;28;20533;-68
2022/11/29 10:47:50;;;;;;;38.60;25.30;;;7.30;99.90;;;;;;5076659;28;20842;-67
2022/11/29 10:50:21;;;;;;;39.33;25.37;;;7.30;99.90;;;;;;5075550;28;20550;-68
2022/11/29 10:52:48;;;;;;;35.27;24.70;;;7.30;99.90;;;;;;5075797;28;20868;-68
2022/11/29 10:55:17;;;;;;;34.73;24.17;;;7.30;99.90;;;;;;5075420;28;20454;-68
2022/11/29 10:58:13;;;;;;;38.77;26.17;;;7.40;99.90;;;;;;5075994;28;20801;-67
2022/11/29 11:00:46;;;;;;;36.90;23.50;;;7.40;99.90;;;;;;5075706;28;20541;-68
2022/11/29 11:03:17;;;;;;;39.07;23.63;;;7.40;99.90;;;;;;5075596;28;20456;-68
2022/11/29 11:06:01;;;;;;;36.43;24.33;;;7.40;99.90;;;;;;5075407;28;20465;-67
2022/11/29 11:08:29;;;;;;;38.97;27.67;;;7.40;99.90;;;;;;5075933;28;20466;-67
2022/11/29 11:10:56;;;;;;;38.50;24.27;;;7.40;99.90;;;;;;5075773;28;20519;-67
2022/11/29 11:13:25;;;;;;;41.17;25.30;;;7.40;99.90;;;;;;5076197;28;20505;-68
2022/11/29 11:15:57;;;;;;;35.20;24.30;;;7.40;99.90;;;;;;5075735;28;20501;-68
2022/11/29 11:18:27;;;;;;;43.13;24.23;;;7.40;99.90;;;;;;5075947;28;20443;-69
2022/11/29 11:20:58;;;;;;;33.77;24.47;;;7.40;99.90;;;;;;5075160;28;20933;-67
2022/11/29 11:23:28;;;;;;;36.57;23.77;;;7.40;99.90;;;;;;5075169;28;20439;-69
2022/11/29 11:26:01;;;;;;;41.33;24.13;;;7.40;99.90;;;;;;5075657;28;20533;-69
2022/11/29 11:28:30;;;;;;;40.93;24.90;;;7.40;99.90;;;;;;5075194;28;20855;-68
2022/11/29 11:31:00;;;;;;;38.40;24.37;;;7.40;99.90;;;;;;5074912;28;20489;-68
2022/11/29 11:33:29;;;;;;;38.57;26.10;;;7.40;99.90;;;;;;5075461;28;20565;-68
2022/11/29 11:36:06;;;;;;;37.73;25.40;;;7.40;99.90;;;;;;5074972;28;20856;-67
2022/11/29 11:38:34;;;;;;;51.07;34.00;;;7.30;99.90;;;;;;5075541;28;20453;-68
2022/11/29 11:41:06;;;;;;;40.80;26.27;;;7.30;99.90;;;;;;5075344;28;20462;-67
2022/11/29 11:43:33;;;;;;;39.77;26.00;;;7.30;99.90;;;;;;5075011;28;20525;-68
2022/11/29 11:46:00;;;;;;;39.67;26.20;;;7.30;99.90;;;;;;5076125;28;20462;-68
2022/11/29 11:48:28;;;;;;;45.37;27.60;;;7.30;99.90;;;;;;5079330;28;20485;-68
2022/11/29 11:50:57;;;;;;;37.80;25.30;;;7.30;99.90;;;;;;5078809;28;20454;-68
2022/11/29 11:53:30;;;;;;;40.30;25.17;;;7.20;99.90;;;;;;5079384;28;20577;-68
2022/11/29 11:56:01;;;;;;;37.70;23.83;;;7.20;99.90;;;;;;5079458;28;20525;-68
2022/11/29 11:58:31;;;;;;;39.17;26.20;;;7.20;99.90;;;;;;5079369;28;20443;-67
2022/11/29 12:00:59;;;;;;;37.80;24.93;;;7.20;99.90;;;;;;5079038;28;20844;-68
2022/11/29 12:03:34;;;;;;;43.33;27.10;;;7.20;99.90;;;;;;5079210;28;20819;-68
2022/11/29 12:06:15;;;;;;;41.20;24.73;;;7.30;99.90;;;;;;5079016;28;20524;-68
2022/11/29 12:08:44;;;;;;;37.67;24.93;;;7.30;99.90;;;;;;5078758;28;20438;-69
2022/11/29 12:11:15;;;;;;;39.20;24.73;;;7.40;99.90;;;;;;5078220;28;20516;-68
2022/11/29 12:13:47;;;;;;;38.90;26.40;;;7.40;99.90;;;;;;5078759;28;20466;-68
2022/11/29 12:16:26;;;;;;;39.60;25.37;;;7.40;99.90;;;;;;5078474;28;20442;-68
2022/11/29 12:18:58;;;;;;;66.60;43.37;;;7.40;99.90;;;;;;5078672;28;20442;-67
2022/11/29 12:21:31;;;;;;;39.10;26.53;;;7.40;99.90;;;;;;5078759;28;20537;-67
2022/11/29 12:24:05;;;;;;;42.40;26.83;;;7.40;99.90;;;;;;5078494;28;20525;-67
2022/11/29 12:26:36;;;;;;;42.20;26.00;;;7.50;99.90;;;;;;5078703;28;20438;-68
2022/11/29 12:29:03;;;;;;;42.30;26.70;;;7.50;99.90;;;;;;5078551;28;20925;-68
2022/11/29 12:31:44;;;;;;;43.07;26.40;;;7.40;99.90;;;;;;5079023;28;20466;-69
2022/11/29 12:34:25;;;;;;;49.60;29.60;;;7.40;99.90;;;;;;5078761;28;20517;-69
2022/11/29 12:36:59;;;;;;;42.23;28.70;;;7.40;99.90;;;;;;5078549;28;20533;-67
2022/11/29 12:39:48;;;;;;;43.97;27.33;;;7.30;99.90;;;;;;5078477;28;20438;-68
2022/11/29 12:42:24;;;;;;;37.80;25.03;;;7.30;99.90;;;;;;5079210;28;20541;-68
2022/11/29 12:45:00;;;;;;;45.10;28.03;;;7.30;99.90;;;;;;5078991;28;20474;-69
2022/11/29 12:47:41;;;;;;;50.33;27.93;;;7.30;99.90;;;;;;5078647;28;20520;-68
2022/11/29 12:50:22;;;;;;;42.20;27.97;;;7.30;99.90;;;;;;5078158;28;20439;-69
2022/11/29 12:53:01;;;;;;;43.57;25.90;;;7.30;99.90;;;;;;5078025;28;20470;-68
2022/11/29 12:55:40;;;;;;;43.23;27.47;;;7.20;99.90;;;;;;5078391;28;20438;-67
2022/11/29 12:58:14;;;;;;;44.33;29.47;;;7.20;99.90;;;;;;5076940;28;20472;-68
2022/11/29 13:00:48;;;;;;;45.47;26.87;;;7.30;99.90;;;;;;5077840;28;20478;-68
2022/11/29 13:03:34;;;;;;;42.00;27.23;;;7.30;99.90;;;;;;5077761;28;20521;-69
2022/11/29 13:06:14;;;;;;;42.80;28.27;;;7.30;99.90;;;;;;5078238;28;20438;-67
2022/11/29 13:08:58;;;;;;;40.00;27.40;;;7.30;99.90;;;;;;5078306;28;20522;-68
2022/11/29 13:11:30;;;;;;;41.97;26.80;;;7.30;99.90;;;;;;5078333;28;20442;-68
2022/11/29 13:14:06;;;;;;;42.43;27.30;;;7.40;99.90;;;;;;5078699;28;20769;-67
2022/11/29 13:16:41;;;;;;;42.73;28.13;;;7.40;99.90;;;;;;5078770;28;20462;-68
2022/11/29 13:19:14;;;;;;;39.47;26.87;;;7.40;99.90;;;;;;5078073;28;20803;-68
2022/11/29 13:21:50;;;;;;;45.63;29.13;;;7.50;99.90;;;;;;5078305;28;20439;-68